Caddo River (Arkansas), Caddo Gap (07359610)

StateArkansasCurrentPotential (87 cfs)
RiverCaddo RiverFlood - The river is flooding. Obstacles can be treacherous or deadly. The river should be avoided at this stage for casual trips and definitely for the inexperienced. Trips should be attempted only with protective gear and equipment.Flood(none)
Updated2019-10-14 3:45 (8 minutes ago)High - The river is high and potentially dangerous, especially for the young and / or inexperienced. Normal stream obstacles are sometimes difficult to navigate. Extended distances can be attempted, but canoe travel may not be advisable.High(none)
Discharge87 cfs (median: 48 cfs)Good - Conditions are ideal for a canoe or kayak. Boats typically will drag on fewer than one-quarter of riffles, if at all, and portages are unnecessary or rare. Normal float lengths can be attempted without a problem.Good(none)
Height5.01 feetLow - River is low but can still be floated. Some riffles are okay but most come with significant dragging and might need a portage. Float lengths should be reduced to accommodate low flow, dragging, and portages.Low(none)
TrendSteady (falling over 24 hours)Poor - River is too low to float comfortably. Most or all riffles will drag or must be portaged and some obstacles (such as slick shelf rock) cause undue problems. Avoid the river at this stage for casual paddling trips.Poor(none)
USGSExternal icon USGS Site for Caddo Gap (07359610)LocationExternal icon Google Maps

Trending Data

Plot Image
ObservationHeightDischargeMaximum
Discharge
Minimum
Discharge
Mean
Discharge
P05P10P20P25P50
(Median)
P75P80P90P95
2019-10-14 03:45 5.01 87 1110 (2010) 27 (2011) 121 28 32 35 37 48 85 114 210 915
2019-10-14 02:45 5.01 87 1110 (2010) 27 (2011) 121 28 32 35 37 48 85 114 210 915
2019-10-14 01:45 5.01 87 1110 (2010) 27 (2011) 121 28 32 35 37 48 85 114 210 915
2019-10-14 00:45 5.03 92 1110 (2010) 27 (2011) 121 28 32 35 37 48 85 114 210 915
2019-10-13 23:45 5.02 89 2480 (2002) 23 (2013) 190 26 31 37 38 47 112 125 269 1820
2019-10-13 22:45 5.03 92 2480 (2002) 23 (2013) 190 26 31 37 38 47 112 125 269 1820
2019-10-13 21:45 5.01 87 2480 (2002) 23 (2013) 190 26 31 37 38 47 112 125 269 1820
2019-10-13 20:45 5.02 89 2480 (2002) 23 (2013) 190 26 31 37 38 47 112 125 269 1820
2019-10-13 19:45 5.01 87 2480 (2002) 23 (2013) 190 26 31 37 38 47 112 125 269 1820
2019-10-13 18:45 5.01 87 2480 (2002) 23 (2013) 190 26 31 37 38 47 112 125 269 1820
2019-10-13 17:45 5.01 87 2480 (2002) 23 (2013) 190 26 31 37 38 47 112 125 269 1820
2019-10-13 16:45 5.03 92 2480 (2002) 23 (2013) 190 26 31 37 38 47 112 125 269 1820
2019-10-13 15:45 5.03 92 2480 (2002) 23 (2013) 190 26 31 37 38 47 112 125 269 1820
2019-10-13 14:45 5.03 92 2480 (2002) 23 (2013) 190 26 31 37 38 47 112 125 269 1820
2019-10-13 13:45 5.04 94 2480 (2002) 23 (2013) 190 26 31 37 38 47 112 125 269 1820
2019-10-13 12:45 5.04 94 2480 (2002) 23 (2013) 190 26 31 37 38 47 112 125 269 1820
2019-10-13 11:45 5.04 94 2480 (2002) 23 (2013) 190 26 31 37 38 47 112 125 269 1820
2019-10-13 10:45 5.06 99 2480 (2002) 23 (2013) 190 26 31 37 38 47 112 125 269 1820
2019-10-13 09:45 5.06 99 2480 (2002) 23 (2013) 190 26 31 37 38 47 112 125 269 1820
2019-10-13 08:45 5.07 101 2480 (2002) 23 (2013) 190 26 31 37 38 47 112 125 269 1820
2019-10-13 07:45 5.07 101 2480 (2002) 23 (2013) 190 26 31 37 38 47 112 125 269 1820
2019-10-13 06:45 5.08 104 2480 (2002) 23 (2013) 190 26 31 37 38 47 112 125 269 1820
2019-10-13 05:45 5.08 104 2480 (2002) 23 (2013) 190 26 31 37 38 47 112 125 269 1820
2019-10-13 04:45 5.07 101 2480 (2002) 23 (2013) 190 26 31 37 38 47 112 125 269 1820
2019-10-13 03:45 5.09 106 2480 (2002) 23 (2013) 190 26 31 37 38 47 112 125 269 1820
2019-10-13 02:45 5.08 104 2480 (2002) 23 (2013) 190 26 31 37 38 47 112 125 269 1820
2019-10-13 01:45 5.08 104 2480 (2002) 23 (2013) 190 26 31 37 38 47 112 125 269 1820
2019-10-13 00:45 5.09 106 2480 (2002) 23 (2013) 190 26 31 37 38 47 112 125 269 1820
2019-10-12 23:45 5.10 109 462 (2010) 22 (2013) 92 25 30 36 39 47 97 128 284 420
2019-10-12 22:45 5.11 111 462 (2010) 22 (2013) 92 25 30 36 39 47 97 128 284 420
2019-10-12 21:45 5.11 111 462 (2010) 22 (2013) 92 25 30 36 39 47 97 128 284 420
2019-10-12 20:45 5.10 109 462 (2010) 22 (2013) 92 25 30 36 39 47 97 128 284 420
2019-10-12 19:45 5.11 111 462 (2010) 22 (2013) 92 25 30 36 39 47 97 128 284 420
2019-10-12 18:45 5.10 109 462 (2010) 22 (2013) 92 25 30 36 39 47 97 128 284 420
2019-10-12 17:45 5.12 114 462 (2010) 22 (2013) 92 25 30 36 39 47 97 128 284 420
2019-10-12 16:45 5.13 116 462 (2010) 22 (2013) 92 25 30 36 39 47 97 128 284 420
2019-10-12 15:45 5.14 119 462 (2010) 22 (2013) 92 25 30 36 39 47 97 128 284 420
2019-10-12 14:45 5.15 122 462 (2010) 22 (2013) 92 25 30 36 39 47 97 128 284 420
2019-10-12 13:45 5.17 127 462 (2010) 22 (2013) 92 25 30 36 39 47 97 128 284 420
2019-10-12 12:45 5.17 127 462 (2010) 22 (2013) 92 25 30 36 39 47 97 128 284 420
2019-10-12 11:45 5.19 132 462 (2010) 22 (2013) 92 25 30 36 39 47 97 128 284 420
2019-10-12 10:45 5.20 134 462 (2010) 22 (2013) 92 25 30 36 39 47 97 128 284 420
2019-10-12 09:45 5.22 140 462 (2010) 22 (2013) 92 25 30 36 39 47 97 128 284 420
2019-10-12 08:45 5.23 142 462 (2010) 22 (2013) 92 25 30 36 39 47 97 128 284 420
2019-10-12 07:45 5.23 142 462 (2010) 22 (2013) 92 25 30 36 39 47 97 128 284 420
2019-10-12 06:45 5.26 150 462 (2010) 22 (2013) 92 25 30 36 39 47 97 128 284 420
2019-10-12 05:45 5.26 150 462 (2010) 22 (2013) 92 25 30 36 39 47 97 128 284 420
2019-10-12 04:45 5.28 156 462 (2010) 22 (2013) 92 25 30 36 39 47 97 128 284 420
2019-10-12 03:45 5.32 166 462 (2010) 22 (2013) 92 25 30 36 39 47 97 128 284 420
2019-10-12 02:45 5.32 166 462 (2010) 22 (2013) 92 25 30 36 39 47 97 128 284 420
2019-10-12 01:45 5.36 177 462 (2010) 22 (2013) 92 25 30 36 39 47 97 128 284 420
2019-10-12 00:45 5.38 183 462 (2010) 22 (2013) 92 25 30 36 39 47 97 128 284 420
2019-10-11 23:45 5.38 183 640 (2010) 20 (2011) 112 21 29 35 39 46 110 152 400 613
2019-10-11 22:45 5.41 191 640 (2010) 20 (2011) 112 21 29 35 39 46 110 152 400 613
2019-10-11 21:45 5.43 197 640 (2010) 20 (2011) 112 21 29 35 39 46 110 152 400 613
2019-10-11 20:45 5.44 200 640 (2010) 20 (2011) 112 21 29 35 39 46 110 152 400 613
2019-10-11 19:45 5.49 214 640 (2010) 20 (2011) 112 21 29 35 39 46 110 152 400 613
2019-10-11 18:45 5.48 211 640 (2010) 20 (2011) 112 21 29 35 39 46 110 152 400 613
2019-10-11 17:45 5.45 202 640 (2010) 20 (2011) 112 21 29 35 39 46 110 152 400 613
2019-10-11 16:45 5.47 208 640 (2010) 20 (2011) 112 21 29 35 39 46 110 152 400 613
2019-10-11 15:45 5.48 211 640 (2010) 20 (2011) 112 21 29 35 39 46 110 152 400 613
2019-10-11 14:45 5.46 205 640 (2010) 20 (2011) 112 21 29 35 39 46 110 152 400 613
2019-10-11 13:45 5.48 211 640 (2010) 20 (2011) 112 21 29 35 39 46 110 152 400 613
2019-10-11 12:45 5.48 211 640 (2010) 20 (2011) 112 21 29 35 39 46 110 152 400 613
2019-10-11 11:45 5.50 217 640 (2010) 20 (2011) 112 21 29 35 39 46 110 152 400 613
2019-10-11 10:45 5.53 225 640 (2010) 20 (2011) 112 21 29 35 39 46 110 152 400 613
2019-10-11 09:45 5.50 217 640 (2010) 20 (2011) 112 21 29 35 39 46 110 152 400 613
2019-10-11 08:45 5.43 197 640 (2010) 20 (2011) 112 21 29 35 39 46 110 152 400 613
2019-10-11 07:45 5.28 156 640 (2010) 20 (2011) 112 21 29 35 39 46 110 152 400 613
2019-10-11 06:45 5.16 124 640 (2010) 20 (2011) 112 21 29 35 39 46 110 152 400 613
2019-10-11 05:45 5.11 111 640 (2010) 20 (2011) 112 21 29 35 39 46 110 152 400 613
2019-10-11 04:45 5.10 109 640 (2010) 20 (2011) 112 21 29 35 39 46 110 152 400 613
2019-10-11 03:45 5.04 94 640 (2010) 20 (2011) 112 21 29 35 39 46 110 152 400 613
2019-10-11 02:45 4.99 82 640 (2010) 20 (2011) 112 21 29 35 39 46 110 152 400 613
2019-10-11 01:45 4.93 71 640 (2010) 20 (2011) 112 21 29 35 39 46 110 152 400 613
2019-10-11 00:45 4.90 66 640 (2010) 20 (2011) 112 21 29 35 39 46 110 152 400 613
2019-10-10 23:45 4.89 64 1170 (2010) 19 (2011) 145 22 25 33 37 45 91 163 301 1120
2019-10-10 22:45 4.89 64 1170 (2010) 19 (2011) 145 22 25 33 37 45 91 163 301 1120
2019-10-10 21:45 4.88 63 1170 (2010) 19 (2011) 145 22 25 33 37 45 91 163 301 1120
2019-10-10 20:45 4.89 64 1170 (2010) 19 (2011) 145 22 25 33 37 45 91 163 301 1120
2019-10-10 19:45 4.88 63 1170 (2010) 19 (2011) 145 22 25 33 37 45 91 163 301 1120
2019-10-10 18:45 4.89 64 1170 (2010) 19 (2011) 145 22 25 33 37 45 91 163 301 1120
2019-10-10 17:45 4.88 63 1170 (2010) 19 (2011) 145 22 25 33 37 45 91 163 301 1120
2019-10-10 16:45 4.87 61 1170 (2010) 19 (2011) 145 22 25 33 37 45 91 163 301 1120
2019-10-10 15:45 4.89 64 1170 (2010) 19 (2011) 145 22 25 33 37 45 91 163 301 1120
2019-10-10 14:45 4.88 63 1170 (2010) 19 (2011) 145 22 25 33 37 45 91 163 301 1120
2019-10-10 13:45 4.89 64 1170 (2010) 19 (2011) 145 22 25 33 37 45 91 163 301 1120
2019-10-10 12:45 4.88 63 1170 (2010) 19 (2011) 145 22 25 33 37 45 91 163 301 1120
2019-10-10 11:45 4.89 64 1170 (2010) 19 (2011) 145 22 25 33 37 45 91 163 301 1120
2019-10-10 10:45 4.90 66 1170 (2010) 19 (2011) 145 22 25 33 37 45 91 163 301 1120
2019-10-10 09:45 4.90 66 1170 (2010) 19 (2011) 145 22 25 33 37 45 91 163 301 1120
2019-10-10 08:45 4.89 64 1170 (2010) 19 (2011) 145 22 25 33 37 45 91 163 301 1120
2019-10-10 07:45 4.89 64 1170 (2010) 19 (2011) 145 22 25 33 37 45 91 163 301 1120
2019-10-10 06:45 4.90 66 1170 (2010) 19 (2011) 145 22 25 33 37 45 91 163 301 1120
2019-10-10 05:45 4.89 64 1170 (2010) 19 (2011) 145 22 25 33 37 45 91 163 301 1120
2019-10-10 04:45 4.89 64 1170 (2010) 19 (2011) 145 22 25 33 37 45 91 163 301 1120
2019-10-10 03:45 4.89 64 1170 (2010) 19 (2011) 145 22 25 33 37 45 91 163 301 1120
2019-10-10 02:45 4.90 66 1170 (2010) 19 (2011) 145 22 25 33 37 45 91 163 301 1120
2019-10-10 01:45 4.89 64 1170 (2010) 19 (2011) 145 22 25 33 37 45 91 163 301 1120
2019-10-10 00:45 4.90 66 1170 (2010) 19 (2011) 145 22 25 33 37 45 91 163 301 1120
2019-10-09 23:45 4.90 66 3990 (1991) 20 (2011) 328 21 24 35 36 47 117 227 388 3650
2019-10-09 22:45 4.89 64 3990 (1991) 20 (2011) 328 21 24 35 36 47 117 227 388 3650
2019-10-09 21:45 4.90 66 3990 (1991) 20 (2011) 328 21 24 35 36 47 117 227 388 3650
2019-10-09 20:45 4.88 63 3990 (1991) 20 (2011) 328 21 24 35 36 47 117 227 388 3650
2019-10-09 19:45 4.89 64 3990 (1991) 20 (2011) 328 21 24 35 36 47 117 227 388 3650
2019-10-09 18:45 4.89 64 3990 (1991) 20 (2011) 328 21 24 35 36 47 117 227 388 3650
2019-10-09 17:45 4.89 64 3990 (1991) 20 (2011) 328 21 24 35 36 47 117 227 388 3650
2019-10-09 16:45 4.89 64 3990 (1991) 20 (2011) 328 21 24 35 36 47 117 227 388 3650
2019-10-09 15:45 4.90 66 3990 (1991) 20 (2011) 328 21 24 35 36 47 117 227 388 3650
2019-10-09 14:45 4.90 66 3990 (1991) 20 (2011) 328 21 24 35 36 47 117 227 388 3650
2019-10-09 13:45 4.89 64 3990 (1991) 20 (2011) 328 21 24 35 36 47 117 227 388 3650
2019-10-09 12:45 4.89 64 3990 (1991) 20 (2011) 328 21 24 35 36 47 117 227 388 3650
2019-10-09 11:45 4.90 66 3990 (1991) 20 (2011) 328 21 24 35 36 47 117 227 388 3650
2019-10-09 10:45 4.90 66 3990 (1991) 20 (2011) 328 21 24 35 36 47 117 227 388 3650
2019-10-09 08:45 4.91 67 3990 (1991) 20 (2011) 328 21 24 35 36 47 117 227 388 3650
2019-10-09 07:45 4.91 67 3990 (1991) 20 (2011) 328 21 24 35 36 47 117 227 388 3650
2019-10-09 06:45 4.91 67 3990 (1991) 20 (2011) 328 21 24 35 36 47 117 227 388 3650
2019-10-09 05:45 4.91 67 3990 (1991) 20 (2011) 328 21 24 35 36 47 117 227 388 3650
2019-10-09 04:45 4.91 67 3990 (1991) 20 (2011) 328 21 24 35 36 47 117 227 388 3650
2019-10-09 03:45 4.90 66 3990 (1991) 20 (2011) 328 21 24 35 36 47 117 227 388 3650
2019-10-09 02:45 4.90 66 3990 (1991) 20 (2011) 328 21 24 35 36 47 117 227 388 3650
2019-10-09 01:45 4.91 67 3990 (1991) 20 (2011) 328 21 24 35 36 47 117 227 388 3650
2019-10-09 00:45 4.91 67 3990 (1991) 20 (2011) 328 21 24 35 36 47 117 227 388 3650
2019-10-08 23:45 4.91 67 1610 (1991) 23 (2011) 154 24 25 30 34 43 83 236 470 987
2019-10-08 22:45 4.90 66 1610 (1991) 23 (2011) 154 24 25 30 34 43 83 236 470 987
2019-10-08 21:45 4.90 66 1610 (1991) 23 (2011) 154 24 25 30 34 43 83 236 470 987
2019-10-08 20:45 4.91 67 1610 (1991) 23 (2011) 154 24 25 30 34 43 83 236 470 987
2019-10-08 19:45 4.91 67 1610 (1991) 23 (2011) 154 24 25 30 34 43 83 236 470 987
2019-10-08 18:45 4.90 66 1610 (1991) 23 (2011) 154 24 25 30 34 43 83 236 470 987
2019-10-08 17:45 4.90 66 1610 (1991) 23 (2011) 154 24 25 30 34 43 83 236 470 987
2019-10-08 16:45 4.90 66 1610 (1991) 23 (2011) 154 24 25 30 34 43 83 236 470 987
2019-10-08 15:45 4.90 66 1610 (1991) 23 (2011) 154 24 25 30 34 43 83 236 470 987
2019-10-08 14:45 4.91 67 1610 (1991) 23 (2011) 154 24 25 30 34 43 83 236 470 987
2019-10-08 13:45 4.91 67 1610 (1991) 23 (2011) 154 24 25 30 34 43 83 236 470 987
2019-10-08 12:45 4.92 69 1610 (1991) 23 (2011) 154 24 25 30 34 43 83 236 470 987
2019-10-08 11:45 4.91 67 1610 (1991) 23 (2011) 154 24 25 30 34 43 83 236 470 987
2019-10-08 10:45 4.92 69 1610 (1991) 23 (2011) 154 24 25 30 34 43 83 236 470 987
2019-10-08 09:45 4.93 71 1610 (1991) 23 (2011) 154 24 25 30 34 43 83 236 470 987
2019-10-08 08:45 4.93 71 1610 (1991) 23 (2011) 154 24 25 30 34 43 83 236 470 987
2019-10-08 07:45 4.93 71 1610 (1991) 23 (2011) 154 24 25 30 34 43 83 236 470 987
2019-10-08 06:45 4.94 72 1610 (1991) 23 (2011) 154 24 25 30 34 43 83 236 470 987
2019-10-08 05:45 4.95 74 1610 (1991) 23 (2011) 154 24 25 30 34 43 83 236 470 987
2019-10-08 04:45 4.94 72 1610 (1991) 23 (2011) 154 24 25 30 34 43 83 236 470 987
2019-10-08 03:45 4.94 72 1610 (1991) 23 (2011) 154 24 25 30 34 43 83 236 470 987
2019-10-08 02:45 4.95 74 1610 (1991) 23 (2011) 154 24 25 30 34 43 83 236 470 987
2019-10-08 01:45 4.95 74 1610 (1991) 23 (2011) 154 24 25 30 34 43 83 236 470 987
2019-10-08 00:45 4.95 74 1610 (1991) 23 (2011) 154 24 25 30 34 43 83 236 470 987
2019-10-07 23:45 4.95 74 1060 (1999) 23 (2013) 137 24 26 29 32 42 52 56 531 1020
2019-10-07 22:45 4.96 75 1060 (1999) 23 (2013) 137 24 26 29 32 42 52 56 531 1020
2019-10-07 21:45 4.96 75 1060 (1999) 23 (2013) 137 24 26 29 32 42 52 56 531 1020
2019-10-07 20:45 4.96 75 1060 (1999) 23 (2013) 137 24 26 29 32 42 52 56 531 1020
2019-10-07 19:45 4.96 75 1060 (1999) 23 (2013) 137 24 26 29 32 42 52 56 531 1020
2019-10-07 18:45 4.96 75 1060 (1999) 23 (2013) 137 24 26 29 32 42 52 56 531 1020
2019-10-07 17:45 4.94 72 1060 (1999) 23 (2013) 137 24 26 29 32 42 52 56 531 1020
2019-10-07 16:45 4.95 74 1060 (1999) 23 (2013) 137 24 26 29 32 42 52 56 531 1020
2019-10-07 15:45 4.95 74 1060 (1999) 23 (2013) 137 24 26 29 32 42 52 56 531 1020
2019-10-07 14:45 4.97 78 1060 (1999) 23 (2013) 137 24 26 29 32 42 52 56 531 1020
2019-10-07 13:45 4.96 75 1060 (1999) 23 (2013) 137 24 26 29 32 42 52 56 531 1020
2019-10-07 12:45 4.97 78 1060 (1999) 23 (2013) 137 24 26 29 32 42 52 56 531 1020
2019-10-07 11:45 4.98 80 1060 (1999) 23 (2013) 137 24 26 29 32 42 52 56 531 1020
2019-10-07 10:45 4.98 80 1060 (1999) 23 (2013) 137 24 26 29 32 42 52 56 531 1020
2019-10-07 09:45 4.99 82 1060 (1999) 23 (2013) 137 24 26 29 32 42 52 56 531 1020
2019-10-07 08:45 4.99 82 1060 (1999) 23 (2013) 137 24 26 29 32 42 52 56 531 1020
2019-10-07 07:45 4.99 82 1060 (1999) 23 (2013) 137 24 26 29 32 42 52 56 531 1020
2019-10-07 06:45 4.97 78 1060 (1999) 23 (2013) 137 24 26 29 32 42 52 56 531 1020
2019-10-07 05:45 4.97 78 1060 (1999) 23 (2013) 137 24 26 29 32 42 52 56 531 1020
2019-10-07 04:45 4.94 72 1060 (1999) 23 (2013) 137 24 26 29 32 42 52 56 531 1020
2019-10-07 03:45 4.90 66 1060 (1999) 23 (2013) 137 24 26 29 32 42 52 56 531 1020
2019-10-07 02:45 4.88 63 1060 (1999) 23 (2013) 137 24 26 29 32 42 52 56 531 1020
2019-10-07 01:45 4.88 63 1060 (1999) 23 (2013) 137 24 26 29 32 42 52 56 531 1020
2019-10-07 00:45 4.89 64 1060 (1999) 23 (2013) 137 24 26 29 32 42 52 56 531 1020

A total of 171 rows are displayed for years 1989 through 2018.

Trips for Caddo River (Arkansas), Caddo Gap (07359610)

DateStartEndDistanceConditionDischargeHeightFishingDetails
Click for details2017-11-12 Glenwood Caddo River Cabins Total trip distance: 3.3 miles3.3 Good 40 4.84 Fair KSB
LMB
SMB
KSB, LMB, SMB
Fillmore, Brian
Fillmore, Rebecca
Fillmore, Vivien
Javorsek, Rachel
Fillmore, Brian; Fillmore, Rebecca; Fillmore, Vivien; Javorsek, Rachel
Vivien's maiden voyage!Vivien's maiden voyage! USGS Gauge Data:
Caddo Gap (07359610)
Discharge: 40
Height: 4.84
<b>USGS Gauge Data:</b></br />Caddo Gap (07359610)<br />Discharge: 40<br />Height: 4.84
Source: FillmoreSource: Fillmore

A total of 1 rows are displayed.

Trip Summary for Caddo River (Arkansas), Caddo Gap (07359610)

Miles3.3
Trips1
People4
Dates1
Years1
Months1
Rows1
Sources1

Condition Descriptions

Fishing Conditions

Fish Species

Notes

Classic Trip List

The classic River Trips application is still available for use. It is updated with the new system using a data retrofit. It is no longer maintained. The original River Trips application is no longer updated (as of 1 Dec 2016) but can be checked for errors or for the condition of the data before it was converted to the new system.